createdAt,value
2017-01-26T00:00:50.509Z,0
2017-01-26T00:01:59.997Z,0
2017-01-26T00:03:09.076Z,0
2017-01-26T00:04:18.176Z,0
2017-01-26T00:05:27.973Z,0
2017-01-26T00:06:37.074Z,0
2017-01-26T00:07:46.151Z,0
2017-01-26T00:08:56.002Z,0
2017-01-26T00:10:05.874Z,0
2017-01-26T00:11:15.266Z,0
2017-01-26T00:12:25.116Z,0
2017-01-26T00:13:34.211Z,0
2017-01-26T00:14:42.909Z,0
2017-01-26T00:15:51.609Z,0
2017-01-26T00:17:00.441Z,0
2017-01-26T00:18:09.121Z,0
2017-01-26T00:19:18.248Z,0
2017-01-26T00:20:27.320Z,0
2017-01-26T00:21:36.009Z,0
2017-01-26T00:22:46.195Z,0
2017-01-26T00:23:55.274Z,0
2017-01-26T00:25:04.351Z,0
2017-01-26T00:26:13.038Z,0
2017-01-26T00:27:22.512Z,0
2017-01-26T00:28:32.103Z,0
2017-01-26T00:29:41.173Z,0
2017-01-26T00:30:50.242Z,0
2017-01-26T00:31:59.706Z,0
2017-01-26T00:33:09.190Z,0
2017-01-26T00:34:18.137Z,0
2017-01-26T00:35:27.605Z,0
2017-01-26T00:36:36.757Z,0
2017-01-26T00:37:46.224Z,0
2017-01-26T00:38:55.716Z,0
2017-01-26T00:40:05.337Z,0
2017-01-26T00:41:14.027Z,0
2017-01-26T00:42:22.712Z,0
2017-01-26T00:43:31.397Z,0
2017-01-26T00:44:40.500Z,0
2017-01-26T00:45:49.731Z,0
2017-01-26T00:46:59.584Z,0
2017-01-26T00:48:08.656Z,0
2017-01-26T00:49:17.740Z,0
2017-01-26T00:50:26.451Z,0
2017-01-26T00:51:35.381Z,0
2017-01-26T00:52:44.440Z,0
2017-01-26T00:53:53.129Z,0
2017-01-26T00:55:01.806Z,0
2017-01-26T00:56:11.275Z,0
2017-01-26T00:57:20.241Z,0
2017-01-26T00:58:29.715Z,0
2017-01-26T00:59:38.410Z,0
2017-01-26T01:00:47.888Z,0
2017-01-26T01:01:56.969Z,0
2017-01-26T01:03:05.741Z,0
2017-01-26T01:04:14.425Z,0
2017-01-26T01:05:23.889Z,0
2017-01-26T01:06:33.766Z,0
2017-01-26T01:07:42.848Z,0
2017-01-26T01:08:52.463Z,0
2017-01-26T01:10:01.556Z,0
2017-01-26T01:11:10.236Z,0
2017-01-26T01:12:19.718Z,0
2017-01-26T01:13:29.195Z,0
2017-01-26T01:14:38.420Z,0
2017-01-26T01:15:47.488Z,0
2017-01-26T01:16:56.571Z,0
2017-01-26T01:18:05.267Z,0
2017-01-26T01:19:14.345Z,0
2017-01-26T01:20:23.770Z,0
2017-01-26T01:21:32.473Z,0
2017-01-26T01:22:41.566Z,0
2017-01-26T01:23:50.637Z,0
2017-01-26T01:24:59.332Z,0
2017-01-26T01:26:09.561Z,0
2017-01-26T01:27:18.246Z,0
2017-01-26T01:28:27.323Z,0
2017-01-26T01:29:36.402Z,0
2017-01-26T01:30:45.084Z,0
2017-01-26T01:31:54.094Z,0
2017-01-26T01:33:04.340Z,0
2017-01-26T01:34:13.416Z,0
2017-01-26T01:35:22.877Z,0
2017-01-26T01:36:32.339Z,0
2017-01-26T01:37:42.145Z,0
2017-01-26T01:38:50.840Z,0
2017-01-26T01:39:59.942Z,0
2017-01-26T01:41:09.419Z,0
2017-01-26T01:42:18.491Z,0
2017-01-26T01:43:27.423Z,0
2017-01-26T01:44:36.908Z,0
2017-01-26T01:45:45.604Z,0
2017-01-26T01:46:54.663Z,0
2017-01-26T01:48:03.731Z,0
2017-01-26T01:49:13.162Z,0
2017-01-26T01:50:21.841Z,0
2017-01-26T01:51:31.348Z,0
2017-01-26T01:52:40.834Z,0
2017-01-26T01:53:49.932Z,0
2017-01-26T01:54:58.955Z,0
2017-01-26T01:56:07.646Z,0
2017-01-26T01:57:16.330Z,0
2017-01-26T01:58:25.406Z,0
2017-01-26T01:59:34.087Z,0
2017-01-26T02:00:43.260Z,0
2017-01-26T02:01:52.730Z,0
2017-01-26T02:03:01.406Z,0
2017-01-26T02:04:10.480Z,0
2017-01-26T02:05:19.546Z,0
2017-01-26T02:06:28.990Z,0
2017-01-26T02:07:38.493Z,0
2017-01-26T02:08:47.944Z,0
2017-01-26T02:09:57.411Z,0
2017-01-26T02:11:06.496Z,0
2017-01-26T02:12:15.875Z,0
2017-01-26T02:13:25.783Z,0
2017-01-26T02:14:35.246Z,0
2017-01-26T02:15:43.934Z,0
2017-01-26T02:16:53.061Z,0
2017-01-26T02:18:01.954Z,0
2017-01-26T02:19:10.657Z,0
2017-01-26T02:20:19.727Z,0
2017-01-26T02:21:28.414Z,0
2017-01-26T02:22:38.277Z,0
2017-01-26T02:23:47.196Z,0
2017-01-26T02:24:56.660Z,0
2017-01-26T02:26:06.137Z,0
2017-01-26T02:27:15.615Z,0
2017-01-26T02:28:24.288Z,0
2017-01-26T02:29:33.624Z,0
2017-01-26T02:30:42.688Z,0
2017-01-26T02:31:51.418Z,0
2017-01-26T02:33:00.481Z,0
2017-01-26T02:34:09.167Z,0
2017-01-26T02:35:17.942Z,0
2017-01-26T02:36:27.404Z,0
2017-01-26T02:37:36.488Z,0
2017-01-26T02:38:45.583Z,0
2017-01-26T02:39:54.257Z,0
2017-01-26T02:41:04.078Z,0
2017-01-26T02:42:13.583Z,0
2017-01-26T02:43:22.321Z,0
2017-01-26T02:44:31.035Z,0
2017-01-26T02:45:39.718Z,0
2017-01-26T02:46:48.705Z,0
2017-01-26T02:47:58.163Z,0
2017-01-26T02:49:07.625Z,0
2017-01-26T02:50:16.690Z,0
2017-01-26T02:51:25.752Z,0
2017-01-26T02:52:34.976Z,0
2017-01-26T02:53:43.665Z,0
2017-01-26T02:54:52.348Z,0
2017-01-26T02:56:01.011Z,0
2017-01-26T02:57:10.084Z,0
2017-01-26T02:58:18.915Z,0
2017-01-26T02:59:27.599Z,0
2017-01-26T03:00:36.664Z,0
2017-01-26T03:01:46.160Z,0
2017-01-26T03:02:55.625Z,0
2017-01-26T03:04:05.057Z,0
2017-01-26T03:05:14.126Z,0
2017-01-26T03:06:23.201Z,0
2017-01-26T03:07:31.907Z,0
2017-01-26T03:08:40.587Z,0
2017-01-26T03:09:49.411Z,0
2017-01-26T03:10:58.475Z,0
2017-01-26T03:12:07.927Z,0
2017-01-26T03:13:16.600Z,0
2017-01-26T03:14:25.675Z,0
2017-01-26T03:15:35.064Z,0
2017-01-26T03:16:44.554Z,0
2017-01-26T03:17:53.242Z,0
2017-01-26T03:19:02.317Z,0
2017-01-26T03:20:11.404Z,0
2017-01-26T03:21:20.838Z,0
2017-01-26T03:22:30.294Z,0
2017-01-26T03:23:39.375Z,0
2017-01-26T03:24:48.433Z,0
2017-01-26T03:25:57.514Z,0
2017-01-26T03:27:06.894Z,0
2017-01-26T03:28:15.970Z,0
2017-01-26T03:29:25.472Z,0
2017-01-26T03:30:34.545Z,0
2017-01-26T03:31:44.383Z,0
2017-01-26T03:32:53.807Z,0
2017-01-26T03:34:02.921Z,0
2017-01-26T03:35:11.988Z,0
2017-01-26T03:36:21.830Z,0
2017-01-26T03:37:30.507Z,0
2017-01-26T03:38:39.539Z,0
2017-01-26T03:39:49.791Z,0
2017-01-26T03:40:59.267Z,0
2017-01-26T03:42:08.334Z,0
2017-01-26T03:43:17.798Z,0
2017-01-26T03:44:26.639Z,0
2017-01-26T03:45:36.105Z,0
2017-01-26T03:46:45.178Z,0
2017-01-26T03:47:54.648Z,0
2017-01-26T03:49:04.152Z,0
2017-01-26T03:50:13.581Z,0
2017-01-26T03:51:23.044Z,0
2017-01-26T03:52:32.495Z,0
2017-01-26T03:53:41.179Z,0
2017-01-26T03:54:50.638Z,0
2017-01-26T03:56:00.353Z,0
2017-01-26T03:57:09.064Z,0
2017-01-26T03:58:18.147Z,0
2017-01-26T03:59:27.217Z,0
2017-01-26T04:00:37.465Z,0
2017-01-26T04:01:46.459Z,0
2017-01-26T04:02:55.553Z,0
2017-01-26T04:04:04.636Z,0
2017-01-26T04:05:13.315Z,0
2017-01-26T04:06:22.412Z,0
2017-01-26T04:07:31.205Z,0
2017-01-26T04:08:40.331Z,0
2017-01-26T04:09:49.428Z,0
2017-01-26T04:10:58.521Z,0
2017-01-26T04:12:07.588Z,0
2017-01-26T04:13:16.517Z,0
2017-01-26T04:14:25.580Z,0
2017-01-26T04:15:34.282Z,0
2017-01-26T04:16:43.360Z,0
2017-01-26T04:17:52.431Z,0
2017-01-26T04:19:01.760Z,0
2017-01-26T04:20:10.843Z,0
2017-01-26T04:21:19.915Z,0
2017-01-26T04:22:28.604Z,0
2017-01-26T04:23:37.678Z,0
2017-01-26T04:24:46.890Z,0
2017-01-26T04:25:56.769Z,0
2017-01-26T04:27:05.847Z,0
2017-01-26T04:28:14.935Z,0
2017-01-26T04:29:23.635Z,0
2017-01-26T04:30:33.392Z,0
2017-01-26T04:31:42.865Z,0
2017-01-26T04:32:51.941Z,0
2017-01-26T04:34:01.048Z,0
2017-01-26T04:35:10.561Z,0
2017-01-26T04:36:19.875Z,0
2017-01-26T04:37:29.324Z,0
2017-01-26T04:38:38.401Z,0
2017-01-26T04:39:47.463Z,0
2017-01-26T04:40:56.540Z,0
2017-01-26T04:42:06.122Z,0
2017-01-26T04:43:15.215Z,0
2017-01-26T04:44:23.918Z,0
2017-01-26T04:45:32.983Z,0
2017-01-26T04:46:41.675Z,0
2017-01-26T04:47:50.607Z,0
2017-01-26T04:48:59.682Z,0
2017-01-26T04:50:08.379Z,0
2017-01-26T04:51:17.056Z,0
2017-01-26T04:52:26.924Z,0
2017-01-26T04:53:35.715Z,0
2017-01-26T04:54:45.174Z,0
2017-01-26T04:55:54.241Z,0
2017-01-26T04:57:04.143Z,0
2017-01-26T04:58:13.613Z,0
2017-01-26T04:59:23.186Z,0
2017-01-26T05:00:32.268Z,0
2017-01-26T05:01:41.346Z,0
2017-01-26T05:02:50.424Z,0
2017-01-26T05:03:59.491Z,0
2017-01-26T05:05:09.283Z,0
2017-01-26T05:06:17.973Z,0
2017-01-26T05:07:27.076Z,0
2017-01-26T05:08:36.199Z,0
2017-01-26T05:09:45.656Z,0
2017-01-26T05:10:55.069Z,0
2017-01-26T05:12:04.144Z,0
2017-01-26T05:13:13.243Z,0
2017-01-26T05:14:22.705Z,0
2017-01-26T05:15:31.396Z,0
2017-01-26T05:16:40.837Z,0
2017-01-26T05:17:49.930Z,0
2017-01-26T05:18:58.611Z,0
2017-01-26T05:20:07.292Z,0
2017-01-26T05:21:15.961Z,0
2017-01-26T05:22:26.976Z,0
2017-01-26T05:23:36.042Z,0
2017-01-26T05:24:45.112Z,0
2017-01-26T05:25:54.562Z,0
2017-01-26T05:27:03.645Z,0
2017-01-26T05:28:12.438Z,0
2017-01-26T05:29:21.513Z,0
2017-01-26T05:30:30.188Z,0
2017-01-26T05:31:40.106Z,0
2017-01-26T05:32:49.571Z,0
2017-01-26T05:34:00.500Z,0
2017-01-26T05:35:09.599Z,0
2017-01-26T05:36:18.679Z,0
2017-01-26T05:37:27.756Z,0
2017-01-26T05:38:37.222Z,0
2017-01-26T05:39:46.585Z,0
2017-01-26T05:40:55.281Z,0
2017-01-26T05:42:04.739Z,0
2017-01-26T05:43:13.811Z,0
2017-01-26T05:44:22.497Z,0
2017-01-26T05:45:31.325Z,0
2017-01-26T05:46:40.395Z,0
2017-01-26T05:47:49.465Z,0
2017-01-26T05:48:58.151Z,0
2017-01-26T05:50:07.221Z,0
2017-01-26T05:51:16.278Z,0
2017-01-26T05:52:25.389Z,0
2017-01-26T05:53:34.457Z,0
2017-01-26T05:54:43.146Z,0
2017-01-26T05:55:52.210Z,0
2017-01-26T05:57:01.965Z,0
2017-01-26T05:58:11.429Z,0
2017-01-26T05:59:20.494Z,0
2017-01-26T06:00:29.171Z,0
2017-01-26T06:01:38.245Z,0
2017-01-26T06:02:48.469Z,0
2017-01-26T06:03:57.573Z,0
2017-01-26T06:05:06.262Z,0
2017-01-26T06:06:15.354Z,0
2017-01-26T06:07:24.815Z,0
2017-01-26T06:08:33.989Z,0
2017-01-26T06:09:43.063Z,0
2017-01-26T06:10:52.134Z,0
2017-01-26T06:12:02.008Z,0
2017-01-26T06:13:11.116Z,0
2017-01-26T06:14:20.896Z,4
2017-01-26T06:15:30.744Z,4
2017-01-26T06:16:39.827Z,4
2017-01-26T06:17:49.285Z,4
2017-01-26T06:18:59.217Z,4
2017-01-26T06:20:08.641Z,4
2017-01-26T06:21:17.732Z,4
2017-01-26T06:22:26.790Z,4
2017-01-26T06:23:35.869Z,4
2017-01-26T06:24:44.933Z,4
2017-01-26T06:25:53.714Z,4
2017-01-26T06:27:03.178Z,4
2017-01-26T06:28:11.886Z,4
2017-01-26T06:29:20.573Z,4
2017-01-26T06:30:29.658Z,4
2017-01-26T06:31:38.890Z,4
2017-01-26T06:32:48.437Z,4
2017-01-26T06:33:57.176Z,8
2017-01-26T06:35:05.859Z,4
2017-01-26T06:36:15.746Z,4
2017-01-26T06:37:25.732Z,4
2017-01-26T06:38:34.907Z,8
2017-01-26T06:39:44.388Z,8
2017-01-26T06:40:53.459Z,4
2017-01-26T06:42:02.154Z,4
2017-01-26T06:43:11.194Z,4
2017-01-26T06:44:20.644Z,4
2017-01-26T06:45:30.101Z,4
2017-01-26T06:46:39.277Z,4
2017-01-26T06:47:49.130Z,4
2017-01-26T06:48:58.357Z,4
2017-01-26T06:50:08.215Z,4
2017-01-26T06:51:16.924Z,4
2017-01-26T06:52:25.994Z,4
2017-01-26T06:53:35.074Z,8
2017-01-26T06:54:45.236Z,4
2017-01-26T06:55:54.329Z,8
2017-01-26T06:57:03.395Z,8
2017-01-26T06:58:12.466Z,8
2017-01-26T06:59:21.167Z,8
2017-01-26T07:00:30.380Z,12
2017-01-26T07:01:39.800Z,12
2017-01-26T07:02:49.289Z,12
2017-01-26T07:03:58.843Z,16
2017-01-26T07:05:08.722Z,20
2017-01-26T07:06:17.509Z,20
2017-01-26T07:07:26.964Z,20
2017-01-26T07:08:36.035Z,24
2017-01-26T07:09:45.108Z,24
2017-01-26T07:10:54.188Z,28
2017-01-26T07:12:03.732Z,32
2017-01-26T07:13:12.817Z,32
2017-01-26T07:14:21.892Z,36
2017-01-26T07:15:30.563Z,40
2017-01-26T07:16:39.260Z,44
2017-01-26T07:17:49.014Z,52
2017-01-26T07:18:58.087Z,52
2017-01-26T07:20:07.563Z,56
2017-01-26T07:21:17.045Z,60
2017-01-26T07:22:26.115Z,68
2017-01-26T07:23:35.964Z,76
2017-01-26T07:24:45.441Z,84
2017-01-26T07:25:54.527Z,88
2017-01-26T07:27:03.236Z,96
2017-01-26T07:28:12.699Z,100
2017-01-26T07:29:22.038Z,108
2017-01-26T07:30:31.121Z,108
2017-01-26T07:31:40.594Z,120
2017-01-26T07:32:49.284Z,124
2017-01-26T07:33:58.355Z,132
2017-01-26T07:35:07.558Z,140
2017-01-26T07:36:16.251Z,148
2017-01-26T07:37:25.345Z,156
2017-01-26T07:38:34.819Z,164
2017-01-26T07:39:44.280Z,172
2017-01-26T07:40:53.651Z,184
2017-01-26T07:42:03.230Z,196
2017-01-26T07:43:12.318Z,224
2017-01-26T07:44:22.176Z,236
2017-01-26T07:45:30.890Z,248
2017-01-26T07:46:39.901Z,224
2017-01-26T07:47:49.757Z,240
2017-01-26T07:48:58.834Z,252
2017-01-26T07:50:08.304Z,280
2017-01-26T07:51:17.062Z,284
2017-01-26T07:52:26.823Z,268
2017-01-26T07:53:36.353Z,288
2017-01-26T07:54:45.064Z,292
2017-01-26T07:55:54.934Z,312
2017-01-26T07:57:04.004Z,320
2017-01-26T07:58:12.993Z,332
2017-01-26T07:59:21.733Z,328
2017-01-26T08:00:30.422Z,332
2017-01-26T08:01:39.493Z,340
2017-01-26T08:02:48.562Z,356
2017-01-26T08:03:57.807Z,352
2017-01-26T08:05:07.295Z,380
2017-01-26T08:06:16.394Z,376
2017-01-26T08:07:25.076Z,400
2017-01-26T08:08:33.779Z,408
2017-01-26T08:09:43.933Z,408
2017-01-26T08:10:53.401Z,420
2017-01-26T08:12:02.141Z,440
2017-01-26T08:13:11.227Z,440
2017-01-26T08:14:19.927Z,452
2017-01-26T08:15:29.118Z,460
2017-01-26T08:16:38.214Z,504
2017-01-26T08:17:46.904Z,516
2017-01-26T08:19:02.908Z,552
2017-01-26T08:20:11.601Z,540
2017-01-26T08:21:20.956Z,548
2017-01-26T08:22:29.651Z,532
2017-01-26T08:23:39.123Z,532
2017-01-26T08:24:48.975Z,540
2017-01-26T08:25:58.475Z,548
2017-01-26T08:27:07.471Z,544
2017-01-26T08:28:16.551Z,544
2017-01-26T08:29:25.677Z,560
2017-01-26T08:30:34.790Z,584
2017-01-26T08:31:43.915Z,604
2017-01-26T08:32:53.270Z,620
2017-01-26T08:34:01.979Z,608
2017-01-26T08:35:10.702Z,604
2017-01-26T08:36:20.172Z,624
2017-01-26T08:37:29.256Z,636
2017-01-26T08:38:39.273Z,628
2017-01-26T08:39:47.943Z,612
2017-01-26T08:40:57.045Z,608
2017-01-26T08:42:05.739Z,612
2017-01-26T08:43:14.427Z,620
2017-01-26T08:44:23.645Z,628
2017-01-26T08:45:32.762Z,636
2017-01-26T08:46:41.841Z,644
2017-01-26T08:47:50.923Z,640
2017-01-26T08:49:00.001Z,636
2017-01-26T08:50:09.759Z,636
2017-01-26T08:51:18.457Z,636
2017-01-26T08:52:27.532Z,640
2017-01-26T08:53:36.994Z,648
2017-01-26T08:54:46.467Z,652
2017-01-26T08:55:55.644Z,660
2017-01-26T08:57:04.343Z,668
2017-01-26T08:58:13.424Z,664
2017-01-26T08:59:22.514Z,672
2017-01-26T09:00:31.579Z,676
2017-01-26T09:01:40.367Z,672
2017-01-26T09:02:49.446Z,676
2017-01-26T09:03:58.511Z,688
2017-01-26T09:05:07.996Z,716
2017-01-26T09:06:17.085Z,708
2017-01-26T09:07:26.409Z,696
2017-01-26T09:08:36.268Z,700
2017-01-26T09:09:45.346Z,692
2017-01-26T09:10:54.809Z,688
2017-01-26T09:12:03.887Z,704
2017-01-26T09:13:12.878Z,688
2017-01-26T09:14:22.730Z,704
2017-01-26T09:15:31.811Z,688
2017-01-26T09:16:40.901Z,668
2017-01-26T09:17:49.625Z,680
2017-01-26T09:18:58.951Z,684
2017-01-26T09:20:08.408Z,676
2017-01-26T09:21:17.483Z,676
2017-01-26T09:22:26.166Z,708
2017-01-26T09:23:34.851Z,688
2017-01-26T09:24:44.063Z,688
2017-01-26T09:25:53.525Z,696
2017-01-26T09:27:03.009Z,684
2017-01-26T09:28:12.092Z,684
2017-01-26T09:29:21.207Z,692
2017-01-26T09:30:30.830Z,696
2017-01-26T09:31:39.529Z,704
2017-01-26T09:32:48.220Z,708
2017-01-26T09:33:57.331Z,712
2017-01-26T09:35:06.403Z,696
2017-01-26T09:36:15.578Z,688
2017-01-26T09:37:24.661Z,688
2017-01-26T09:38:33.347Z,680
2017-01-26T09:39:42.024Z,692
2017-01-26T09:40:51.487Z,692
2017-01-26T09:42:02.039Z,688
2017-01-26T09:43:11.499Z,692
2017-01-26T09:44:20.570Z,696
2017-01-26T09:45:30.036Z,688
2017-01-26T09:46:38.728Z,720
2017-01-26T09:47:47.654Z,696
2017-01-26T09:48:56.862Z,696
2017-01-26T09:50:05.565Z,708
2017-01-26T09:51:14.252Z,684
2017-01-26T09:52:23.740Z,696
2017-01-26T09:53:33.370Z,700
2017-01-26T09:54:42.892Z,696
2017-01-26T09:55:51.955Z,696
2017-01-26T09:57:01.433Z,704
2017-01-26T09:58:10.891Z,688
2017-01-26T09:59:20.698Z,684
2017-01-26T10:00:30.161Z,692
2017-01-26T10:01:39.676Z,700
2017-01-26T10:02:48.361Z,692
2017-01-26T10:03:57.437Z,688
2017-01-26T10:05:06.615Z,692
2017-01-26T10:06:16.477Z,688
2017-01-26T10:07:25.561Z,688
2017-01-26T10:08:35.425Z,692
2017-01-26T10:09:44.541Z,688
2017-01-26T10:10:53.582Z,684
2017-01-26T10:12:02.268Z,672
2017-01-26T10:13:11.352Z,680
2017-01-26T10:14:20.417Z,680
2017-01-26T10:15:30.272Z,672
2017-01-26T10:16:40.322Z,672
2017-01-26T10:17:49.794Z,668
2017-01-26T10:18:58.904Z,672
2017-01-26T10:20:07.989Z,672
2017-01-26T10:21:17.094Z,668
2017-01-26T10:22:26.132Z,664
2017-01-26T10:23:35.231Z,664
2017-01-26T10:24:43.964Z,656
2017-01-26T10:25:52.643Z,652
2017-01-26T10:27:02.105Z,652
2017-01-26T10:28:11.481Z,656
2017-01-26T10:29:20.617Z,656
2017-01-26T10:30:30.096Z,656
2017-01-26T10:31:39.216Z,656
2017-01-26T10:32:49.072Z,656
2017-01-26T10:33:58.913Z,660
2017-01-26T10:35:07.608Z,648
2017-01-26T10:36:16.677Z,652
2017-01-26T10:37:25.760Z,652
2017-01-26T10:38:35.628Z,652
2017-01-26T10:39:44.969Z,648
2017-01-26T10:40:54.435Z,648
2017-01-26T10:42:03.518Z,652
2017-01-26T10:43:13.379Z,652
2017-01-26T10:44:22.853Z,656
2017-01-26T10:45:31.908Z,652
2017-01-26T10:46:40.995Z,656
2017-01-26T10:47:50.072Z,652
2017-01-26T10:48:59.538Z,648
2017-01-26T10:50:08.619Z,648
2017-01-26T10:51:18.430Z,648
2017-01-26T10:52:27.509Z,640
2017-01-26T10:53:36.583Z,644
2017-01-26T10:54:46.041Z,648
2017-01-26T10:55:54.716Z,644
2017-01-26T10:57:04.531Z,644
2017-01-26T10:58:13.226Z,648
2017-01-26T10:59:22.315Z,648
2017-01-26T11:00:30.987Z,648
2017-01-26T11:01:40.479Z,644
2017-01-26T11:02:49.494Z,644
2017-01-26T11:03:58.583Z,648
2017-01-26T11:05:07.271Z,640
2017-01-26T11:06:16.009Z,640
2017-01-26T11:07:24.708Z,640
2017-01-26T11:08:34.091Z,644
2017-01-26T11:09:42.778Z,640
2017-01-26T11:10:51.880Z,636
2017-01-26T11:12:00.981Z,640
2017-01-26T11:13:10.453Z,636
2017-01-26T11:14:19.294Z,636
2017-01-26T11:15:28.756Z,636
2017-01-26T11:16:37.427Z,636
2017-01-26T11:17:46.121Z,636
2017-01-26T11:18:54.808Z,632
2017-01-26T11:20:03.861Z,632
2017-01-26T11:21:13.723Z,628
2017-01-26T11:22:22.865Z,628
2017-01-26T11:23:32.375Z,632
2017-01-26T11:24:41.872Z,632
2017-01-26T11:25:51.312Z,632
2017-01-26T11:27:00.414Z,624
2017-01-26T11:28:09.493Z,624
2017-01-26T11:29:18.191Z,624
2017-01-26T11:30:26.874Z,620
2017-01-26T11:31:36.433Z,624
2017-01-26T11:32:45.894Z,620
2017-01-26T11:33:54.983Z,616
2017-01-26T11:35:04.069Z,616
2017-01-26T11:36:12.791Z,620
2017-01-26T11:37:22.607Z,616
2017-01-26T11:38:50.433Z,616
2017-01-26T11:39:59.504Z,612
2017-01-26T11:41:08.968Z,612
2017-01-26T11:42:18.050Z,612
2017-01-26T11:43:26.741Z,608
2017-01-26T11:44:36.214Z,608
2017-01-26T11:45:44.922Z,608
2017-01-26T11:46:54.382Z,600
2017-01-26T11:48:03.708Z,604
2017-01-26T11:49:13.183Z,604
2017-01-26T11:50:22.251Z,600
2017-01-26T11:51:31.327Z,600
2017-01-26T11:52:41.182Z,596
2017-01-26T11:53:49.993Z,596
2017-01-26T11:54:59.064Z,592
2017-01-26T11:56:09.296Z,596
2017-01-26T11:57:19.144Z,596
2017-01-26T11:58:27.840Z,592
2017-01-26T11:59:37.011Z,592
2017-01-26T12:00:46.089Z,588
2017-01-26T12:01:55.191Z,592
2017-01-26T12:03:03.883Z,588
2017-01-26T12:04:12.570Z,588
2017-01-26T12:05:22.664Z,588
2017-01-26T12:06:31.755Z,588
2017-01-26T12:07:40.847Z,588
2017-01-26T12:08:50.321Z,584
2017-01-26T12:09:59.399Z,584
2017-01-26T12:11:08.181Z,588
2017-01-26T12:12:18.422Z,584
2017-01-26T12:13:27.113Z,584
2017-01-26T12:14:36.190Z,584
2017-01-26T12:15:45.663Z,584
2017-01-26T12:16:55.397Z,584
2017-01-26T12:18:04.475Z,584
2017-01-26T12:19:13.167Z,584
2017-01-26T12:20:22.229Z,584
2017-01-26T12:21:31.353Z,584
2017-01-26T12:22:40.131Z,580
2017-01-26T12:23:49.196Z,584
2017-01-26T12:24:58.711Z,584
2017-01-26T12:26:08.197Z,580
2017-01-26T12:27:17.690Z,584
2017-01-26T12:28:27.470Z,580
2017-01-26T12:29:36.964Z,580
2017-01-26T12:30:46.828Z,580
2017-01-26T12:31:56.682Z,584
2017-01-26T12:33:06.157Z,584
2017-01-26T12:34:16.326Z,580
2017-01-26T12:35:25.419Z,580
2017-01-26T12:36:34.884Z,580
2017-01-26T12:37:43.981Z,580
2017-01-26T12:38:52.684Z,580
2017-01-26T12:40:01.740Z,580
2017-01-26T12:41:11.992Z,580
2017-01-26T12:42:21.061Z,580
2017-01-26T12:43:30.536Z,580
2017-01-26T12:44:39.652Z,584
2017-01-26T12:45:48.430Z,580
2017-01-26T12:46:57.104Z,580
2017-01-26T12:48:05.791Z,580
2017-01-26T12:49:14.548Z,584
2017-01-26T12:50:23.247Z,584
2017-01-26T12:51:32.090Z,576
2017-01-26T12:52:42.019Z,580
2017-01-26T12:53:51.507Z,576
2017-01-26T12:55:00.596Z,572
2017-01-26T12:56:10.069Z,576
2017-01-26T12:57:19.783Z,572
2017-01-26T12:58:29.676Z,572
2017-01-26T12:59:38.744Z,576
2017-01-26T13:00:47.830Z,576
2017-01-26T13:01:56.513Z,576
2017-01-26T13:03:05.790Z,568
2017-01-26T13:04:15.254Z,572
2017-01-26T13:05:25.138Z,568
2017-01-26T13:06:34.220Z,568
2017-01-26T13:07:43.295Z,572
2017-01-26T13:08:52.237Z,568
2017-01-26T13:10:00.915Z,572
2017-01-26T13:11:09.600Z,568
2017-01-26T13:12:19.061Z,568
2017-01-26T13:13:28.129Z,568
2017-01-26T13:14:37.895Z,564
2017-01-26T13:15:47.369Z,564
2017-01-26T13:16:57.241Z,568
2017-01-26T13:18:06.366Z,564
2017-01-26T13:19:15.883Z,564
2017-01-26T13:20:25.665Z,564
2017-01-26T13:21:34.371Z,564
2017-01-26T13:22:43.491Z,564
2017-01-26T13:23:52.194Z,560
2017-01-26T13:25:01.283Z,560
2017-01-26T13:26:10.714Z,556
2017-01-26T13:27:20.174Z,552
2017-01-26T13:28:30.413Z,552
2017-01-26T13:29:41.056Z,548
2017-01-26T13:30:51.331Z,552
2017-01-26T13:32:02.221Z,548
2017-01-26T13:33:12.098Z,552
2017-01-26T13:34:22.751Z,548
2017-01-26T13:35:33.393Z,548
2017-01-26T13:36:43.686Z,544
2017-01-26T13:37:54.297Z,544
2017-01-26T13:39:04.940Z,540
2017-01-26T13:40:15.610Z,540
2017-01-26T13:41:26.032Z,540
2017-01-26T13:42:35.883Z,536
2017-01-26T13:43:46.783Z,536
2017-01-26T13:44:57.049Z,536
2017-01-26T13:46:06.917Z,536
2017-01-26T13:47:16.381Z,532
2017-01-26T13:48:26.619Z,532
2017-01-26T13:49:37.142Z,528
2017-01-26T13:50:46.678Z,528
2017-01-26T13:51:56.919Z,528
2017-01-26T13:53:07.176Z,524
2017-01-26T13:54:17.847Z,520
2017-01-26T13:55:28.323Z,520
2017-01-26T13:56:38.981Z,516
2017-01-26T13:57:48.458Z,516
2017-01-26T13:58:58.362Z,516
2017-01-26T14:00:08.223Z,512
2017-01-26T14:01:18.573Z,512
2017-01-26T14:02:28.878Z,508
2017-01-26T14:03:39.149Z,512
2017-01-26T14:04:49.013Z,504
2017-01-26T14:05:59.696Z,504
2017-01-26T14:07:10.198Z,500
2017-01-26T14:08:19.326Z,496
2017-01-26T14:09:29.581Z,496
2017-01-26T14:10:40.268Z,496
2017-01-26T14:11:50.121Z,492
2017-01-26T14:13:01.061Z,492
2017-01-26T14:14:10.539Z,488
2017-01-26T14:15:20.795Z,488
2017-01-26T14:16:30.672Z,484
2017-01-26T14:17:40.935Z,484
2017-01-26T14:18:51.278Z,480
2017-01-26T14:20:01.540Z,476
2017-01-26T14:21:11.455Z,472
2017-01-26T14:22:21.329Z,472
2017-01-26T14:23:32.000Z,468
2017-01-26T14:24:42.221Z,464
2017-01-26T14:25:52.084Z,464
2017-01-26T14:27:02.336Z,464
2017-01-26T14:28:12.207Z,460
2017-01-26T14:29:22.857Z,456
2017-01-26T14:30:32.838Z,456
2017-01-26T14:31:42.306Z,452
2017-01-26T14:32:52.557Z,452
2017-01-26T14:34:01.678Z,448
2017-01-26T14:35:12.317Z,444
2017-01-26T14:36:22.811Z,444
2017-01-26T14:37:33.452Z,440
2017-01-26T14:38:42.937Z,440
2017-01-26T14:39:53.193Z,436
2017-01-26T14:41:03.470Z,432
2017-01-26T14:42:13.232Z,432
2017-01-26T14:43:23.498Z,428
2017-01-26T14:44:33.779Z,424
2017-01-26T14:45:44.043Z,420
2017-01-26T14:46:54.291Z,420
2017-01-26T14:48:04.658Z,416
2017-01-26T14:49:15.317Z,412
2017-01-26T14:50:25.971Z,408
2017-01-26T14:51:36.228Z,408
2017-01-26T14:52:46.870Z,404
2017-01-26T14:53:57.468Z,400
2017-01-26T14:55:07.718Z,396
2017-01-26T14:56:17.577Z,392
2017-01-26T14:57:27.455Z,388
2017-01-26T14:58:36.920Z,388
2017-01-26T14:59:47.426Z,380
2017-01-26T15:00:57.702Z,380
2017-01-26T15:02:07.954Z,376
2017-01-26T15:03:18.602Z,372
2017-01-26T15:04:29.256Z,368
2017-01-26T15:05:39.461Z,364
2017-01-26T15:06:49.325Z,360
2017-01-26T15:07:59.205Z,356
2017-01-26T15:09:09.057Z,352
2017-01-26T15:10:18.521Z,348
2017-01-26T15:11:29.263Z,344
2017-01-26T15:12:39.906Z,340
2017-01-26T15:13:50.552Z,336
2017-01-26T15:15:00.823Z,332
2017-01-26T15:16:10.296Z,328
2017-01-26T15:17:21.215Z,324
2017-01-26T15:18:31.858Z,320
2017-01-26T15:19:42.118Z,312
2017-01-26T15:20:52.773Z,308
2017-01-26T15:22:03.415Z,304
2017-01-26T15:23:13.966Z,300
2017-01-26T15:24:24.224Z,292
2017-01-26T15:25:34.473Z,288
2017-01-26T15:26:44.723Z,280
2017-01-26T15:27:54.966Z,280
2017-01-26T15:29:05.470Z,276
2017-01-26T15:30:15.348Z,268
2017-01-26T15:31:25.233Z,260
2017-01-26T15:32:35.485Z,256
2017-01-26T15:33:44.962Z,252
2017-01-26T15:34:55.947Z,248
2017-01-26T15:36:06.221Z,236
2017-01-26T15:37:16.466Z,232
2017-01-26T15:38:26.723Z,224
2017-01-26T15:39:36.971Z,220
2017-01-26T15:40:47.367Z,212
2017-01-26T15:41:57.635Z,208
2017-01-26T15:43:07.492Z,200
2017-01-26T15:44:17.756Z,196
2017-01-26T15:45:28.003Z,188
2017-01-26T15:46:37.964Z,184
2017-01-26T15:47:48.234Z,176
2017-01-26T15:48:58.870Z,172
2017-01-26T15:50:09.159Z,160
2017-01-26T15:51:19.028Z,156
2017-01-26T15:52:29.200Z,152
2017-01-26T15:53:39.858Z,144
2017-01-26T15:54:50.136Z,136
2017-01-26T15:56:00.788Z,128
2017-01-26T15:57:11.043Z,124
2017-01-26T15:58:21.467Z,116
2017-01-26T15:59:31.752Z,112
2017-01-26T16:00:41.612Z,100
2017-01-26T16:01:51.874Z,96
2017-01-26T16:03:02.141Z,92
2017-01-26T16:04:12.154Z,80
2017-01-26T16:05:21.615Z,76
2017-01-26T16:06:32.263Z,72
2017-01-26T16:07:42.512Z,64
2017-01-26T16:08:53.156Z,60
2017-01-26T16:10:03.706Z,56
2017-01-26T16:11:14.382Z,48
2017-01-26T16:12:24.274Z,48
2017-01-26T16:13:34.919Z,40
2017-01-26T16:14:45.160Z,36
2017-01-26T16:15:55.953Z,32
2017-01-26T16:17:06.591Z,28
2017-01-26T16:18:16.885Z,28
2017-01-26T16:19:26.773Z,24
2017-01-26T16:20:37.022Z,20
2017-01-26T16:21:47.968Z,16
2017-01-26T16:22:58.621Z,12
2017-01-26T16:24:08.870Z,12
2017-01-26T16:25:18.771Z,12
2017-01-26T16:26:29.062Z,8